North Central West Virginia Airport
KCKB : now visible

Airfield :











YOU CAN JOIN US ON...

 
LOGIN :

Register | Disclaimer

   EN    FR    IT 

 









Legend :    VFR   Marginal VFR   IFR   Intensive IFR   Very Intensive IFR
Visi :
Ceiling :
>= 8 km
>= 3000ft
5 to 8 km
1000 to 3000 ft
1500m to 5 km
500 to 1000 ft
800 to 1500m
200 to 500 ft
< 800m
< 200 ft
Symbols :   Thunderstorms  Fog  Heavy snow  Heavy precipitations  Wind > 20 kt






- Airport Elevation : 1217 ft
- IATA code : CKB


KCKB - North Central West Virginia

CURRENT METAR :
  • 241114Z AUTO 34011G20KT 4SM -RA BR SCT005 OVC011 13/12 A3003 RMK AO2 WSHFT 1056 P0000 T01330122 TSNO $

EXPIRED METARs :
  • 241053Z AUTO 24006KT 3SM -RA BR OVC005 17/16 A3002 RMK AO2 CIG 003V008 SLP154 P0001 T01670161 TSNO $
  • 240953Z AUTO 22005KT 6SM -RA BR OVC009 17/16 A3000 RMK AO2 RAB48 CIG 006V011 SLP147 P0002 T01670161 TSNO $
  • 240942Z AUTO 22005KT 9SM OVC009 17/16 A3000 RMK AO2 P0002 T01670161 TSNO $
  • 240853Z AUTO 19005KT 10SM OVC011 17/16 A2999 RMK AO2 RAB07E31 SLP142 P0011 6//// T01670156 58005 TSNO $

TAF KCKB
Valid from the 24 at 09:00 until the 25 at 06:00 UTC


240906Z 2409/2506 24006KT P6SM VCSH OVC011
FM241000 33009KT 6SM -RADZ OVC009
FM241500 34006KT 6SM BR OVC011
FM242000 35005KT P6SM BKN021
FM250500 02005KT P6SM VCSH BKN018
KZOB FIR / North America



MET'MAP, your aeronautical weather chart ! - Copyright ORBIFLY December 2007 - Disclaimer

ORBIFLY MET'MAP TEAM :

Programming & Development : Alexandra Zaïnal
Concept & original design : Baudouin d'Aumeries
Assistance for programming : Marc-Olivier Méhu
Technical & hardware support : Manuel Goepfert

Contact : metmap@orbifly.com




SOURCES & CREDITS :

   NOAA       Earth
Advisory